createdAt,value
2017-05-15T00:00:00.752Z,16.90
2017-05-15T00:02:29.678Z,16.80
2017-05-15T00:04:58.599Z,16.80
2017-05-15T00:07:27.607Z,16.90
2017-05-15T00:09:56.832Z,16.90
2017-05-15T00:12:25.725Z,16.90
2017-05-15T00:14:55.390Z,17.00
2017-05-15T00:17:24.320Z,17.10
2017-05-15T00:19:54.006Z,17.10
2017-05-15T00:22:22.906Z,17.10
2017-05-15T00:24:51.834Z,17.10
2017-05-15T00:27:21.474Z,17.00
2017-05-15T00:29:50.434Z,17.00
2017-05-15T00:32:20.107Z,17.00
2017-05-15T00:34:49.002Z,17.10
2017-05-15T00:37:17.930Z,17.00
2017-05-15T00:39:46.834Z,17.00
2017-05-15T00:42:15.757Z,17.00
2017-05-15T00:44:44.702Z,17.00
2017-05-15T00:47:13.603Z,17.00
2017-05-15T00:49:42.517Z,17.00
2017-05-15T00:52:11.433Z,17.10
2017-05-15T00:54:40.341Z,17.10
2017-05-15T00:57:09.986Z,17.00
2017-05-15T00:59:38.953Z,17.00
2017-05-15T01:02:07.865Z,17.00
2017-05-15T01:04:37.375Z,16.90
2017-05-15T01:07:06.351Z,16.90
2017-05-15T01:09:35.256Z,16.80
2017-05-15T01:12:04.195Z,16.70
2017-05-15T01:14:33.871Z,16.50
2017-05-15T01:17:02.790Z,16.40
2017-05-15T01:19:32.482Z,16.30
2017-05-15T01:22:01.384Z,16.30
2017-05-15T01:24:30.297Z,16.30
2017-05-15T01:27:00.216Z,16.10
2017-05-15T01:29:29.142Z,16.20
2017-05-15T01:31:58.044Z,16.30
2017-05-15T01:34:26.995Z,16.30
2017-05-15T01:36:56.546Z,16.30
2017-05-15T01:39:25.458Z,16.30
2017-05-15T01:41:54.433Z,16.30
2017-05-15T01:44:23.333Z,16.30
2017-05-15T01:46:52.213Z,16.30
2017-05-15T01:49:21.134Z,16.20
2017-05-15T01:51:50.814Z,16.10
2017-05-15T01:54:19.748Z,16.10
2017-05-15T01:56:48.646Z,16.10
2017-05-15T01:59:17.628Z,16.10
2017-05-15T02:01:46.557Z,16.10
2017-05-15T02:04:15.455Z,16.10
2017-05-15T02:06:44.370Z,16.10
2017-05-15T02:09:13.287Z,16.10
2017-05-15T02:11:42.976Z,16.00
2017-05-15T02:14:11.945Z,16.10
2017-05-15T02:16:40.836Z,16.10
2017-05-15T02:19:09.772Z,16.10
2017-05-15T02:21:39.423Z,16.00
2017-05-15T02:24:08.330Z,16.00
2017-05-15T02:26:37.226Z,16.00
2017-05-15T02:29:06.159Z,16.00
2017-05-15T02:31:35.077Z,15.90
2017-05-15T02:34:03.993Z,15.80
2017-05-15T02:36:32.909Z,15.80
2017-05-15T02:39:02.546Z,15.70
2017-05-15T02:41:31.475Z,15.70
2017-05-15T02:44:00.381Z,15.70
2017-05-15T02:46:29.314Z,15.60
2017-05-15T02:48:58.222Z,15.60
2017-05-15T02:51:27.146Z,15.60
2017-05-15T02:53:56.055Z,15.50
2017-05-15T02:56:25.726Z,15.40
2017-05-15T02:58:54.636Z,15.50
2017-05-15T03:01:23.578Z,15.50
2017-05-15T03:03:52.478Z,15.40
2017-05-15T03:06:21.397Z,15.40
2017-05-15T03:08:50.315Z,15.40
2017-05-15T03:11:19.238Z,15.40
2017-05-15T03:13:48.909Z,15.30
2017-05-15T03:16:17.874Z,15.40
2017-05-15T03:18:46.921Z,15.30
2017-05-15T03:21:16.576Z,15.30
2017-05-15T03:23:45.510Z,15.30
2017-05-15T03:26:15.174Z,15.30
2017-05-15T03:28:44.145Z,15.30
2017-05-15T03:31:13.037Z,15.30
2017-05-15T03:33:41.966Z,15.30
2017-05-15T03:36:10.903Z,15.30
2017-05-15T03:38:39.823Z,15.30
2017-05-15T03:41:08.794Z,15.20
2017-05-15T03:43:38.594Z,15.10
2017-05-15T03:46:07.522Z,15.10
2017-05-15T03:48:36.430Z,15.10
2017-05-15T03:51:05.365Z,15.10
2017-05-15T03:53:35.021Z,15.10
2017-05-15T03:56:03.937Z,15.20
2017-05-15T03:58:32.835Z,15.10
2017-05-15T04:01:02.469Z,15.10
2017-05-15T04:03:31.404Z,15.10
2017-05-15T04:06:00.379Z,15.10
2017-05-15T04:08:29.324Z,15.10
2017-05-15T04:10:58.993Z,15.10
2017-05-15T04:13:28.019Z,15.10
2017-05-15T04:15:57.696Z,14.90
2017-05-15T04:18:26.594Z,15.00
2017-05-15T04:20:55.498Z,15.00
2017-05-15T04:23:24.430Z,15.10
2017-05-15T04:25:53.335Z,15.20
2017-05-15T04:28:22.255Z,15.10
2017-05-15T04:30:51.222Z,15.10
2017-05-15T04:33:20.135Z,15.10
2017-05-15T04:35:49.071Z,15.10
2017-05-15T04:38:17.958Z,15.20
2017-05-15T04:40:46.870Z,15.20
2017-05-15T04:43:15.794Z,15.30
2017-05-15T04:45:44.730Z,15.40
2017-05-15T04:48:14.383Z,15.40
2017-05-15T04:50:43.280Z,15.50
2017-05-15T04:53:12.194Z,15.50
2017-05-15T04:55:41.121Z,15.50
2017-05-15T04:58:10.054Z,15.60
2017-05-15T05:00:39.789Z,15.70
2017-05-15T05:03:08.749Z,15.70
2017-05-15T05:05:37.703Z,15.80
2017-05-15T05:08:07.349Z,15.90
2017-05-15T05:10:36.254Z,16.00
2017-05-15T05:13:05.196Z,16.00
2017-05-15T05:15:34.831Z,16.00
2017-05-15T05:18:03.752Z,16.10
2017-05-15T05:20:55.150Z,16.00
2017-05-15T05:23:35.831Z,16.00
2017-05-15T05:26:16.663Z,16.00
2017-05-15T05:28:57.445Z,16.00
2017-05-15T05:31:48.735Z,15.90
2017-05-15T05:34:25.437Z,15.90
2017-05-15T05:37:13.067Z,15.80
2017-05-15T05:40:05.579Z,15.90
2017-05-15T05:42:58.200Z,15.80
2017-05-15T05:45:27.082Z,15.60
2017-05-15T05:47:56.002Z,15.60
2017-05-15T05:50:25.672Z,15.60
2017-05-15T05:52:54.590Z,15.70
2017-05-15T05:55:35.441Z,15.60
2017-05-15T05:58:04.365Z,15.70
2017-05-15T06:00:44.010Z,15.50
2017-05-15T06:03:33.596Z,15.80
2017-05-15T06:06:14.519Z,15.90
2017-05-15T06:08:55.427Z,15.80
2017-05-15T06:11:51.095Z,15.90
2017-05-15T06:14:31.950Z,15.90
2017-05-15T06:20:02.407Z,16.00
2017-05-15T06:22:53.926Z,16.10
2017-05-15T06:25:49.535Z,16.20
2017-05-15T06:28:18.422Z,16.20
2017-05-15T06:30:47.463Z,16.20
2017-05-15T06:33:16.323Z,16.10
2017-05-15T06:35:46.121Z,16.00
2017-05-15T06:38:26.949Z,16.10
2017-05-15T06:41:07.704Z,16.20
2017-05-15T06:43:37.319Z,16.20
2017-05-15T06:46:06.276Z,16.30
2017-05-15T06:48:35.151Z,16.30
2017-05-15T06:51:04.679Z,16.30
2017-05-15T06:53:33.595Z,16.40
2017-05-15T06:56:02.487Z,16.40
2017-05-15T06:58:31.379Z,16.60
2017-05-15T07:01:00.282Z,16.50
2017-05-15T07:03:29.169Z,16.40
2017-05-15T07:05:58.035Z,16.50
2017-05-15T07:08:26.415Z,16.80
2017-05-15T07:10:55.385Z,16.90
2017-05-15T07:13:24.287Z,17.10
2017-05-15T07:15:53.230Z,17.00
2017-05-15T07:18:22.146Z,17.00
2017-05-15T07:20:51.110Z,17.10
2017-05-15T07:23:19.282Z,17.10
2017-05-15T07:25:48.188Z,17.60
2017-05-15T07:28:17.855Z,17.70
2017-05-15T07:30:46.763Z,17.90
2017-05-15T07:33:15.697Z,18.10
2017-05-15T07:35:44.602Z,18.30
2017-05-15T07:38:13.535Z,18.40
2017-05-15T07:40:42.568Z,18.60
2017-05-15T07:43:11.497Z,18.70
2017-05-15T07:45:40.466Z,18.70
2017-05-15T07:48:09.393Z,18.90
2017-05-15T07:50:38.280Z,19.20
2017-05-15T07:53:07.229Z,19.50
2017-05-15T07:55:36.274Z,19.70
2017-05-15T07:58:05.179Z,19.80
2017-05-15T08:00:34.103Z,19.60
2017-05-15T08:03:03.163Z,19.50
2017-05-15T08:05:33.014Z,19.60
2017-05-15T08:08:01.911Z,19.80
2017-05-15T08:10:30.823Z,19.70
2017-05-15T08:13:00.606Z,19.70
2017-05-15T08:15:29.515Z,19.50
2017-05-15T08:17:58.408Z,19.70
2017-05-15T08:20:27.499Z,20.00
2017-05-15T08:22:56.431Z,20.00
2017-05-15T08:25:26.062Z,20.10
2017-05-15T08:27:55.003Z,20.50
2017-05-15T08:30:23.897Z,20.80
2017-05-15T08:32:52.834Z,21.00
2017-05-15T08:35:22.474Z,21.60
2017-05-15T08:37:51.392Z,22.20
2017-05-15T08:40:20.320Z,22.60
2017-05-15T08:42:49.982Z,23.00
2017-05-15T08:45:18.886Z,23.40
2017-05-15T08:47:47.813Z,24.00
2017-05-15T08:50:16.741Z,24.10
2017-05-15T08:52:45.633Z,23.30
2017-05-15T08:55:14.560Z,22.70
2017-05-15T08:57:43.472Z,22.70
2017-05-15T09:00:13.114Z,23.00
2017-05-15T09:02:42.023Z,22.70
2017-05-15T09:05:10.946Z,22.50
2017-05-15T09:07:39.863Z,22.80
2017-05-15T09:10:09.494Z,22.30
2017-05-15T09:12:38.422Z,22.80
2017-05-15T09:15:07.322Z,22.90
2017-05-15T09:17:36.219Z,24.40
2017-05-15T09:20:05.890Z,26.90
2017-05-15T09:22:34.797Z,29.10
2017-05-15T09:25:03.713Z,30.50
2017-05-15T09:27:33.358Z,32.50
2017-05-15T09:30:02.262Z,35.50
2017-05-15T09:32:31.243Z,38.30
2017-05-15T09:35:00.162Z,39.60
2017-05-15T09:37:29.073Z,39.70
2017-05-15T09:39:58.167Z,38.20
2017-05-15T09:42:27.045Z,37.80
2017-05-15T09:44:56.005Z,38.20
2017-05-15T09:47:24.972Z,39.70
2017-05-15T09:49:53.877Z,41.40
2017-05-15T09:52:22.815Z,42.40
2017-05-15T09:54:51.759Z,41.70
2017-05-15T09:57:20.710Z,41.00
2017-05-15T09:59:49.634Z,41.50
2017-05-15T10:02:19.278Z,43.20
2017-05-15T10:04:48.204Z,44.40
2017-05-15T10:07:17.146Z,43.70
2017-05-15T10:09:46.794Z,43.60
2017-05-15T10:12:15.730Z,43.10
2017-05-15T10:14:45.395Z,41.10
2017-05-15T10:17:14.313Z,41.20
2017-05-15T10:19:43.254Z,43.00
2017-05-15T10:22:12.198Z,44.50
2017-05-15T10:24:41.093Z,46.60
2017-05-15T10:27:09.981Z,47.30
2017-05-15T10:29:38.878Z,45.00
2017-05-15T10:32:07.822Z,40.20
2017-05-15T10:34:36.738Z,38.10
2017-05-15T10:37:05.851Z,38.30
2017-05-15T10:39:34.794Z,37.00
2017-05-15T10:42:03.705Z,33.90
2017-05-15T10:44:32.607Z,32.00
2017-05-15T10:47:01.523Z,30.50
2017-05-15T10:49:31.180Z,28.90
2017-05-15T10:52:00.754Z,28.20
2017-05-15T10:54:30.422Z,28.10
2017-05-15T10:56:59.326Z,28.90
2017-05-15T10:59:28.246Z,30.90
2017-05-15T11:01:57.973Z,34.00
2017-05-15T11:04:27.012Z,37.70
2017-05-15T11:06:55.936Z,41.20
2017-05-15T11:09:24.836Z,43.30
2017-05-15T11:11:53.745Z,42.10
2017-05-15T11:14:23.385Z,40.50
2017-05-15T11:16:52.362Z,39.60
2017-05-15T11:19:21.282Z,40.40
2017-05-15T11:21:50.185Z,39.50
2017-05-15T11:24:20.003Z,40.30
2017-05-15T11:26:48.910Z,42.20
2017-05-15T11:29:17.851Z,44.00
2017-05-15T11:31:46.807Z,44.10
2017-05-15T11:34:15.777Z,43.60
2017-05-15T11:36:45.389Z,44.70
2017-05-15T11:39:15.236Z,44.50
2017-05-15T11:41:44.867Z,44.40
2017-05-15T11:44:13.783Z,45.50
2017-05-15T11:46:42.713Z,46.70
2017-05-15T11:49:12.358Z,47.50
2017-05-15T11:51:41.255Z,48.40
2017-05-15T11:54:10.170Z,47.10
2017-05-15T11:56:39.090Z,43.80
2017-05-15T11:59:09.069Z,41.00
2017-05-15T12:01:37.945Z,39.00
2017-05-15T12:04:06.858Z,39.10
2017-05-15T12:06:35.798Z,41.20
2017-05-15T12:09:04.730Z,42.10
2017-05-15T12:11:33.627Z,39.40
2017-05-15T12:14:02.572Z,37.40
2017-05-15T12:16:31.471Z,36.20
2017-05-15T12:19:00.362Z,36.20
2017-05-15T12:21:29.322Z,34.20
2017-05-15T12:23:58.253Z,31.40
2017-05-15T12:26:27.195Z,29.20
2017-05-15T12:28:56.113Z,27.90
2017-05-15T12:31:25.007Z,27.30
2017-05-15T12:33:53.903Z,27.10
2017-05-15T12:36:22.843Z,26.90
2017-05-15T12:38:51.747Z,26.20
2017-05-15T12:41:21.410Z,25.90
2017-05-15T12:43:50.334Z,26.30
2017-05-15T12:46:20.000Z,26.30
2017-05-15T12:48:48.898Z,25.70
2017-05-15T12:51:17.806Z,25.70
2017-05-15T12:53:46.725Z,25.60
2017-05-15T12:56:16.361Z,25.60
2017-05-15T12:58:45.304Z,25.90
2017-05-15T13:01:14.190Z,26.10
2017-05-15T13:03:43.135Z,25.80
2017-05-15T13:06:12.078Z,25.50
2017-05-15T13:08:41.029Z,25.20
2017-05-15T13:11:09.921Z,25.30
2017-05-15T13:13:38.815Z,25.80
2017-05-15T13:16:07.774Z,26.00
2017-05-15T13:18:36.674Z,25.80
2017-05-15T13:21:06.102Z,25.20
2017-05-15T13:23:35.026Z,24.70
2017-05-15T13:26:04.019Z,24.30
2017-05-15T13:28:32.960Z,24.10
2017-05-15T13:31:02.571Z,23.90
2017-05-15T13:33:31.575Z,23.90
2017-05-15T13:36:00.514Z,24.00
2017-05-15T13:38:30.179Z,24.20
2017-05-15T13:40:59.082Z,24.80
2017-05-15T13:43:27.995Z,24.90
2017-05-15T13:45:56.899Z,25.10
2017-05-15T13:48:26.742Z,25.00
2017-05-15T13:50:55.677Z,25.10
2017-05-15T13:53:24.584Z,25.40
2017-05-15T13:55:54.298Z,25.70
2017-05-15T13:58:24.024Z,25.60
2017-05-15T14:00:53.661Z,25.40
2017-05-15T14:03:23.343Z,25.20
2017-05-15T14:05:52.286Z,25.40
2017-05-15T14:08:21.448Z,25.40
2017-05-15T14:10:50.314Z,25.20
2017-05-15T14:13:19.233Z,25.30
2017-05-15T14:15:48.871Z,25.40
2017-05-15T14:18:17.787Z,25.50
2017-05-15T14:20:46.718Z,25.30
2017-05-15T14:23:16.362Z,25.20
2017-05-15T14:25:45.271Z,25.30
2017-05-15T14:28:14.197Z,25.60
2017-05-15T14:30:43.834Z,26.00
2017-05-15T14:33:12.732Z,26.40
2017-05-15T14:35:41.655Z,26.20
2017-05-15T14:38:10.545Z,25.80
2017-05-15T14:40:39.488Z,25.30
2017-05-15T14:43:08.447Z,24.70
2017-05-15T14:45:38.108Z,24.60
2017-05-15T14:48:06.992Z,24.90
2017-05-15T14:50:35.912Z,24.90
2017-05-15T14:53:04.832Z,24.40
2017-05-15T14:55:33.752Z,24.30
2017-05-15T14:58:02.683Z,24.60
2017-05-15T15:00:31.591Z,24.90
2017-05-15T15:03:00.570Z,24.80
2017-05-15T15:05:29.461Z,25.00
2017-05-15T15:07:59.122Z,25.30
2017-05-15T15:10:28.066Z,25.50
2017-05-15T15:12:57.062Z,25.50
2017-05-15T15:15:26.793Z,25.20
2017-05-15T15:17:55.742Z,25.00
2017-05-15T15:20:25.392Z,24.80
2017-05-15T15:22:54.321Z,24.70
2017-05-15T15:25:23.233Z,24.50
2017-05-15T15:27:52.889Z,24.20
2017-05-15T15:30:22.411Z,24.40
2017-05-15T15:32:51.303Z,24.60
2017-05-15T15:35:20.203Z,24.90
2017-05-15T15:37:49.240Z,24.50
2017-05-15T15:40:18.240Z,24.40
2017-05-15T15:42:47.862Z,24.40
2017-05-15T15:45:16.781Z,24.60
2017-05-15T15:47:45.692Z,24.30
2017-05-15T15:50:14.578Z,24.00
2017-05-15T15:52:43.608Z,23.90
2017-05-15T15:55:12.508Z,24.00
2017-05-15T15:57:41.398Z,24.00
2017-05-15T16:00:10.426Z,23.80
2017-05-15T16:02:39.331Z,23.70
2017-05-15T16:05:08.237Z,23.80
2017-05-15T16:07:37.934Z,23.90
2017-05-15T16:10:06.798Z,24.10
2017-05-15T16:12:35.773Z,24.00
2017-05-15T16:15:04.727Z,23.80
2017-05-15T16:17:33.606Z,23.70
2017-05-15T16:20:02.708Z,23.80
2017-05-15T16:22:31.639Z,23.80
2017-05-15T16:25:01.263Z,23.70
2017-05-15T16:27:30.175Z,23.70
2017-05-15T16:29:59.106Z,23.60
2017-05-15T16:32:28.855Z,23.50
2017-05-15T16:34:58.486Z,23.40
2017-05-15T16:37:27.403Z,23.30
2017-05-15T16:39:56.336Z,23.20
2017-05-15T16:42:25.977Z,23.20
2017-05-15T16:44:54.894Z,23.30
2017-05-15T16:47:23.858Z,23.40
2017-05-15T16:49:52.775Z,23.40
2017-05-15T16:52:21.686Z,23.40
2017-05-15T16:54:51.364Z,23.30
2017-05-15T16:57:20.312Z,23.10
2017-05-15T16:59:49.211Z,23.10
2017-05-15T17:02:18.224Z,23.10
2017-05-15T17:04:47.136Z,22.90
2017-05-15T17:07:16.065Z,22.80
2017-05-15T17:09:45.899Z,22.70
2017-05-15T17:12:14.823Z,22.80
2017-05-15T17:14:43.715Z,22.80
2017-05-15T17:17:12.635Z,22.70
2017-05-15T17:19:41.537Z,22.60
2017-05-15T17:22:10.455Z,22.70
2017-05-15T17:24:39.375Z,22.80
2017-05-15T17:27:11.966Z,22.80
2017-05-15T17:29:41.463Z,22.70
2017-05-15T17:32:12.504Z,22.50
2017-05-15T17:34:42.425Z,22.50
2017-05-15T17:37:11.443Z,22.70
2017-05-15T17:39:40.403Z,22.80
2017-05-15T17:42:09.294Z,22.90
2017-05-15T17:44:38.222Z,22.80
2017-05-15T17:47:08.100Z,22.70
2017-05-15T17:49:37.059Z,22.70
2017-05-15T17:52:06.684Z,22.40
2017-05-15T17:54:35.593Z,22.40
2017-05-15T17:57:04.595Z,22.30
2017-05-15T17:59:33.511Z,22.30
2017-05-15T18:02:03.171Z,22.20
2017-05-15T18:04:32.128Z,22.20
2017-05-15T18:07:01.955Z,22.20
2017-05-15T18:09:30.865Z,22.30
2017-05-15T18:11:59.771Z,22.30
2017-05-15T18:14:28.710Z,22.30
2017-05-15T18:16:58.385Z,22.20
2017-05-15T18:19:27.278Z,22.10
2017-05-15T18:21:56.210Z,22.10
2017-05-15T18:24:25.102Z,22.00
2017-05-15T18:26:54.022Z,21.90
2017-05-15T18:29:23.005Z,21.80
2017-05-15T18:31:52.091Z,21.70
2017-05-15T18:34:20.989Z,21.70
2017-05-15T18:36:49.962Z,21.60
2017-05-15T18:39:18.878Z,21.50
2017-05-15T18:41:50.162Z,21.40
2017-05-15T18:44:20.107Z,21.30
2017-05-15T18:46:49.501Z,21.30
2017-05-15T18:49:18.504Z,21.20
2017-05-15T18:51:48.231Z,21.20
2017-05-15T18:54:17.934Z,21.30
2017-05-15T18:56:47.718Z,21.20
2017-05-15T18:59:17.423Z,21.20
2017-05-15T19:01:47.086Z,21.10
2017-05-15T19:04:16.042Z,21.10
2017-05-15T19:06:45.116Z,21.10
2017-05-15T19:09:14.776Z,21.00
2017-05-15T19:11:43.679Z,21.10
2017-05-15T19:14:12.818Z,21.10
2017-05-15T19:16:42.511Z,21.10
2017-05-15T19:19:12.254Z,21.10
2017-05-15T19:21:41.254Z,21.00
2017-05-15T19:24:11.008Z,21.00
2017-05-15T19:26:40.041Z,20.90
2017-05-15T19:29:08.964Z,20.90
2017-05-15T19:31:37.883Z,20.80
2017-05-15T19:34:06.811Z,20.70
2017-05-15T19:36:35.719Z,20.70
2017-05-15T19:39:04.889Z,20.60
2017-05-15T19:41:34.582Z,20.40
2017-05-15T19:44:04.300Z,20.40
2017-05-15T19:46:33.987Z,20.40
2017-05-15T19:49:02.951Z,20.40
2017-05-15T19:51:31.872Z,20.40
2017-05-15T19:54:00.878Z,20.40
2017-05-15T19:56:30.522Z,20.20
2017-05-15T19:58:59.431Z,20.20
2017-05-15T20:01:28.501Z,20.20
2017-05-15T20:03:58.219Z,20.00
2017-05-15T20:06:27.180Z,20.00
2017-05-15T20:08:56.141Z,20.00
2017-05-15T20:11:25.107Z,19.90
2017-05-15T20:13:54.079Z,19.80
2017-05-15T20:16:23.025Z,19.80
2017-05-15T20:18:52.024Z,19.80
2017-05-15T20:21:20.954Z,19.80
2017-05-15T20:23:49.879Z,19.80
2017-05-15T20:26:19.723Z,19.70
2017-05-15T20:28:48.655Z,19.70
2017-05-15T20:31:18.306Z,19.60
2017-05-15T20:33:47.208Z,19.60
2017-05-15T20:36:17.104Z,19.50
2017-05-15T20:38:47.118Z,19.40
2017-05-15T20:54:16.052Z,18.60
2017-05-15T20:56:46.556Z,18.50
2017-05-15T20:59:15.480Z,18.70
2017-05-15T21:01:44.447Z,18.80
2017-05-15T21:04:13.340Z,18.90
2017-05-15T21:06:43.062Z,19.00
2017-05-15T21:09:12.843Z,19.00
2017-05-15T21:11:41.746Z,19.10
2017-05-15T21:14:10.682Z,19.20
2017-05-15T21:16:40.313Z,19.10
2017-05-15T21:19:09.770Z,19.20
2017-05-15T21:21:38.662Z,19.20
2017-05-15T21:24:07.592Z,19.20
2017-05-15T21:26:36.519Z,19.20
2017-05-15T21:29:05.504Z,19.30
2017-05-15T21:31:34.401Z,19.30
2017-05-15T21:34:03.437Z,19.40
2017-05-15T21:36:33.107Z,19.30
2017-05-15T21:39:01.998Z,19.30
2017-05-15T21:41:30.925Z,19.30
2017-05-15T21:44:00.594Z,19.20
2017-05-15T21:46:29.494Z,19.20
2017-05-15T21:48:58.398Z,19.30
2017-05-15T21:51:27.306Z,19.30
2017-05-15T21:53:56.988Z,19.30
2017-05-15T21:56:25.922Z,19.30
2017-05-15T21:58:54.828Z,19.40
2017-05-15T22:01:23.718Z,19.40
2017-05-15T22:03:52.699Z,19.40
2017-05-15T22:06:21.622Z,19.40
2017-05-15T22:08:50.530Z,19.50
2017-05-15T22:11:19.462Z,19.50
2017-05-15T22:13:48.342Z,19.40
2017-05-15T22:16:17.392Z,19.30
2017-05-15T22:18:46.322Z,19.40
2017-05-15T22:21:15.215Z,19.40
2017-05-15T22:23:44.208Z,19.30
2017-05-15T22:26:13.176Z,19.30
2017-05-15T22:28:42.091Z,19.20
2017-05-15T22:31:10.966Z,19.30
2017-05-15T22:33:39.930Z,19.30
2017-05-15T22:36:08.826Z,19.20
2017-05-15T22:38:37.746Z,19.20
2017-05-15T22:41:06.729Z,19.20
2017-05-15T22:43:35.643Z,19.20
2017-05-15T22:46:04.559Z,19.20
2017-05-15T22:48:34.246Z,19.10
2017-05-15T22:51:03.139Z,19.10
2017-05-15T22:53:32.053Z,19.00
2017-05-15T22:56:01.816Z,18.90
2017-05-15T22:58:30.736Z,19.10
2017-05-15T23:01:00.391Z,19.10
2017-05-15T23:03:29.887Z,19.20
2017-05-15T23:05:58.770Z,19.20
2017-05-15T23:08:28.561Z,19.20
2017-05-15T23:10:58.296Z,19.20
2017-05-15T23:13:27.189Z,19.30
2017-05-15T23:15:56.082Z,19.20
2017-05-15T23:18:24.983Z,19.20
2017-05-15T23:20:53.875Z,19.20
2017-05-15T23:23:22.814Z,19.20
2017-05-15T23:25:51.861Z,19.20
2017-05-15T23:28:20.761Z,19.20
2017-05-15T23:30:49.642Z,19.10
2017-05-15T23:33:18.921Z,19.10
2017-05-15T23:35:48.590Z,19.10
2017-05-15T23:38:17.500Z,19.10
2017-05-15T23:40:47.199Z,19.10
2017-05-15T23:43:16.086Z,19.10
2017-05-15T23:45:44.990Z,19.10
2017-05-15T23:48:14.004Z,19.10
2017-05-15T23:50:42.872Z,19.10
2017-05-15T23:53:11.760Z,19.10
2017-05-15T23:55:40.714Z,19.10
2017-05-15T23:58:09.627Z,19.10
